createdAt,value
2023-02-19T00:00:56.156Z,1004.08
2023-02-19T00:01:56.264Z,1004.15
2023-02-19T00:02:56.358Z,1004.16
2023-02-19T00:03:56.464Z,1004.15
2023-02-19T00:04:56.540Z,1004.08
2023-02-19T00:05:56.614Z,1004.06
2023-02-19T00:06:56.674Z,1004.00
2023-02-19T00:07:56.745Z,1003.99
2023-02-19T00:08:56.838Z,1004.00
2023-02-19T00:09:56.886Z,1004.04
2023-02-19T00:10:56.969Z,1004.02
2023-02-19T00:11:57.080Z,1004.00
2023-02-19T00:12:57.156Z,1003.93
2023-02-19T00:13:57.256Z,1003.92
2023-02-19T00:14:57.298Z,1003.97
2023-02-19T00:15:57.407Z,1003.98
2023-02-19T00:16:57.449Z,1003.97
2023-02-19T00:17:57.543Z,1003.99
2023-02-19T00:18:57.655Z,1004.00
2023-02-19T00:19:57.703Z,1003.98
2023-02-19T00:20:57.785Z,1003.95
2023-02-19T00:21:57.876Z,1003.94
2023-02-19T00:22:57.946Z,1003.99
2023-02-19T00:23:58.060Z,1004.02
2023-02-19T00:24:58.091Z,1004.00
2023-02-19T00:26:06.024Z,1004.04
2023-02-19T00:26:58.267Z,1003.97
2023-02-19T00:27:58.354Z,1003.98
2023-02-19T00:28:58.514Z,1004.00
2023-02-19T00:29:58.591Z,1003.98
2023-02-19T00:30:58.684Z,1004.01
2023-02-19T00:31:58.844Z,1003.99
2023-02-19T00:32:58.772Z,1003.94
2023-02-19T00:33:58.895Z,1003.95
2023-02-19T00:34:58.935Z,1003.96
2023-02-19T00:35:59.021Z,1003.93
2023-02-19T00:36:59.081Z,1003.99
2023-02-19T00:37:59.185Z,1003.96
2023-02-19T00:38:59.302Z,1003.90
2023-02-19T00:39:59.363Z,1003.96
2023-02-19T00:40:59.465Z,1003.95
2023-02-19T00:41:59.550Z,1003.93
2023-02-19T00:42:59.642Z,1003.92
2023-02-19T00:43:59.764Z,1003.93
2023-02-19T00:44:59.807Z,1003.89
2023-02-19T00:45:59.894Z,1003.91
2023-02-19T00:46:59.962Z,1003.89
2023-02-19T00:48:00.079Z,1003.90
2023-02-19T00:49:00.252Z,1003.86
2023-02-19T00:50:00.210Z,1003.87
2023-02-19T00:51:00.297Z,1003.86
2023-02-19T00:52:00.382Z,1003.86
2023-02-19T00:53:00.473Z,1003.83
2023-02-19T00:54:00.593Z,1003.84
2023-02-19T00:55:00.628Z,1003.84
2023-02-19T00:56:00.708Z,1003.85
2023-02-19T00:57:00.792Z,1003.83
2023-02-19T00:58:00.882Z,1003.79
2023-02-19T00:59:00.960Z,1003.80
2023-02-19T01:00:01.025Z,1003.76
2023-02-19T01:01:01.080Z,1003.78
2023-02-19T01:02:01.172Z,1003.81
2023-02-19T01:03:01.255Z,1003.81
2023-02-19T01:04:01.341Z,1003.83
2023-02-19T01:05:01.470Z,1003.80
2023-02-19T01:06:01.466Z,1003.82
2023-02-19T01:07:01.547Z,1003.83
2023-02-19T01:08:01.630Z,1003.75
2023-02-19T01:09:01.725Z,1003.79
2023-02-19T01:10:01.827Z,1003.78
2023-02-19T01:11:01.891Z,1003.80
2023-02-19T01:12:01.968Z,1003.79
2023-02-19T01:13:02.068Z,1003.79
2023-02-19T01:14:02.193Z,1003.80
2023-02-19T01:15:02.191Z,1003.81
2023-02-19T01:16:02.286Z,1003.79
2023-02-19T01:17:02.347Z,1003.83
2023-02-19T01:18:02.409Z,1003.85
2023-02-19T01:19:02.518Z,1003.86
2023-02-19T01:20:02.593Z,1003.88
2023-02-19T01:21:02.677Z,1003.84
2023-02-19T01:22:02.778Z,1003.82
2023-02-19T01:23:02.870Z,1003.79
2023-02-19T01:24:02.965Z,1003.78
2023-02-19T01:25:03.006Z,1003.70
2023-02-19T01:26:03.097Z,1003.69
2023-02-19T01:27:03.157Z,1003.70
2023-02-19T01:28:03.268Z,1003.71
2023-02-19T01:29:03.376Z,1003.72
2023-02-19T01:30:03.447Z,1003.70
2023-02-19T01:31:03.579Z,1003.66
2023-02-19T01:32:03.732Z,1003.62
2023-02-19T01:33:03.665Z,1003.55
2023-02-19T01:34:03.763Z,1003.56
2023-02-19T01:35:03.841Z,1003.55
2023-02-19T01:36:03.930Z,1003.52
2023-02-19T01:37:04.030Z,1003.51
2023-02-19T01:38:04.120Z,1003.44
2023-02-19T01:39:04.227Z,1003.43
2023-02-19T01:40:04.290Z,1003.33
2023-02-19T01:41:04.361Z,1003.37
2023-02-19T01:42:04.447Z,1003.39
2023-02-19T01:43:04.519Z,1003.37
2023-02-19T01:44:04.650Z,1003.44
2023-02-19T01:45:04.717Z,1003.41
2023-02-19T01:46:04.817Z,1003.40
2023-02-19T01:47:04.907Z,1003.36
2023-02-19T01:48:04.997Z,1003.39
2023-02-19T01:49:05.083Z,1003.35
2023-02-19T01:50:05.141Z,1003.42
2023-02-19T01:51:05.211Z,1003.41
2023-02-19T01:52:05.320Z,1003.46
2023-02-19T01:53:05.396Z,1003.44
2023-02-19T01:54:05.517Z,1003.48
2023-02-19T01:55:05.598Z,1003.46
2023-02-19T01:56:05.665Z,1003.47
2023-02-19T01:57:05.751Z,1003.44
2023-02-19T01:58:05.855Z,1003.44
2023-02-19T01:59:09.142Z,1003.45
2023-02-19T02:00:06.004Z,1003.44
2023-02-19T02:01:06.195Z,1003.42
2023-02-19T02:02:06.231Z,1003.38
2023-02-19T02:03:06.245Z,1003.38
2023-02-19T02:04:06.352Z,1003.40
2023-02-19T02:05:06.467Z,1003.37
2023-02-19T02:06:06.540Z,1003.39
2023-02-19T02:07:06.608Z,1003.43
2023-02-19T02:08:06.706Z,1003.46
2023-02-19T02:09:06.797Z,1003.49
2023-02-19T02:10:06.906Z,1003.52
2023-02-19T02:11:06.940Z,1003.47
2023-02-19T02:12:07.046Z,1003.51
2023-02-19T02:13:07.131Z,1003.50
2023-02-19T02:14:07.235Z,1003.49
2023-02-19T02:15:07.333Z,1003.53
2023-02-19T02:16:07.425Z,1003.57
2023-02-19T02:17:07.477Z,1003.59
2023-02-19T02:18:07.549Z,1003.59
2023-02-19T02:19:07.649Z,1003.60
2023-02-19T02:20:07.730Z,1003.61
2023-02-19T02:21:08.083Z,1003.58
2023-02-19T02:22:07.873Z,1003.59
2023-02-19T02:23:07.956Z,1003.58
2023-02-19T02:24:08.058Z,1003.59
2023-02-19T02:25:08.174Z,1003.62
2023-02-19T02:26:08.245Z,1003.62
2023-02-19T02:27:08.323Z,1003.57
2023-02-19T02:28:08.427Z,1003.57
2023-02-19T02:29:08.502Z,1003.57
2023-02-19T02:30:08.706Z,1003.62
2023-02-19T02:31:09.044Z,1003.60
2023-02-19T02:32:08.864Z,1003.61
2023-02-19T02:33:08.869Z,1003.61
2023-02-19T02:34:08.964Z,1003.60
2023-02-19T02:35:09.041Z,1003.65
2023-02-19T02:36:09.120Z,1003.61
2023-02-19T02:37:09.187Z,1003.61
2023-02-19T02:38:09.297Z,1003.63
2023-02-19T02:39:09.350Z,1003.64
2023-02-19T02:40:09.436Z,1003.57
2023-02-19T02:41:09.855Z,1003.54
2023-02-19T02:42:09.600Z,1003.57
2023-02-19T02:43:09.654Z,1003.56
2023-02-19T02:44:09.764Z,1003.58
2023-02-19T02:45:09.864Z,1003.58
2023-02-19T02:46:09.917Z,1003.56
2023-02-19T02:47:10.004Z,1003.52
2023-02-19T02:48:10.094Z,1003.54
2023-02-19T02:49:10.178Z,1003.56
2023-02-19T02:50:10.272Z,1003.56
2023-02-19T02:51:10.668Z,1003.59
2023-02-19T02:52:10.427Z,1003.57
2023-02-19T02:53:10.476Z,1003.55
2023-02-19T02:54:10.577Z,1003.60
2023-02-19T02:55:10.677Z,1003.58
2023-02-19T02:56:10.756Z,1003.54
2023-02-19T02:57:10.841Z,1003.54
2023-02-19T02:58:10.941Z,1003.54
2023-02-19T02:59:11.022Z,1003.49
2023-02-19T03:00:11.123Z,1003.51
2023-02-19T03:01:11.519Z,1003.54
2023-02-19T03:02:11.375Z,1003.54
2023-02-19T03:03:11.341Z,1003.58
2023-02-19T03:04:11.419Z,1003.57
2023-02-19T03:05:11.539Z,1003.53
2023-02-19T03:06:11.612Z,1003.54
2023-02-19T03:07:11.688Z,1003.53
2023-02-19T03:08:11.761Z,1003.57
2023-02-19T03:09:11.854Z,1003.59
2023-02-19T03:10:11.942Z,1003.58
2023-02-19T03:11:12.094Z,1003.61
2023-02-19T03:12:12.094Z,1003.60
2023-02-19T03:13:12.187Z,1003.59
2023-02-19T03:14:12.275Z,1003.61
2023-02-19T03:15:12.352Z,1003.58
2023-02-19T03:16:12.420Z,1003.57
2023-02-19T03:17:12.506Z,1003.59
2023-02-19T03:18:12.585Z,1003.59
2023-02-19T03:19:12.641Z,1003.60
2023-02-19T03:20:12.762Z,1003.60
2023-02-19T03:21:12.966Z,1003.58
2023-02-19T03:22:12.910Z,1003.60
2023-02-19T03:23:12.963Z,1003.60
2023-02-19T03:24:13.058Z,1003.66
2023-02-19T03:25:13.156Z,1003.70
2023-02-19T03:26:13.239Z,1003.71
2023-02-19T03:27:13.282Z,1003.67
2023-02-19T03:28:13.357Z,1003.73
2023-02-19T03:29:13.415Z,1003.70
2023-02-19T03:30:13.569Z,1003.71
2023-02-19T03:31:13.872Z,1003.77
2023-02-19T03:32:13.707Z,1003.79
2023-02-19T03:33:13.738Z,1003.79
2023-02-19T03:34:13.820Z,1003.82
2023-02-19T03:35:13.916Z,1003.79
2023-02-19T03:36:14.000Z,1003.84
2023-02-19T03:37:14.104Z,1003.83
2023-02-19T03:38:14.179Z,1003.81
2023-02-19T03:39:14.265Z,1003.80
2023-02-19T03:40:14.360Z,1003.85
2023-02-19T03:41:14.410Z,1003.85
2023-02-19T03:42:14.486Z,1003.86
2023-02-19T03:43:14.561Z,1003.80
2023-02-19T03:44:14.655Z,1003.83
2023-02-19T03:45:14.750Z,1003.83
2023-02-19T03:46:14.834Z,1003.86
2023-02-19T03:47:14.931Z,1003.86
2023-02-19T03:48:15.038Z,1003.87
2023-02-19T03:49:15.115Z,1003.92
2023-02-19T03:50:15.203Z,1003.90
2023-02-19T03:51:15.277Z,1003.92
2023-02-19T03:52:15.382Z,1003.90
2023-02-19T03:53:15.472Z,1003.93
2023-02-19T03:54:15.539Z,1003.92
2023-02-19T03:55:15.650Z,1003.92
2023-02-19T03:56:15.746Z,1003.95
2023-02-19T03:57:15.815Z,1003.90
2023-02-19T03:58:15.900Z,1003.96
2023-02-19T03:59:15.953Z,1003.97
2023-02-19T04:00:16.062Z,1003.97
2023-02-19T04:01:16.133Z,1003.95
2023-02-19T04:02:16.255Z,1003.98
2023-02-19T04:03:16.289Z,1003.96
2023-02-19T04:04:16.371Z,1004.04
2023-02-19T04:05:16.466Z,1004.05
2023-02-19T04:06:16.511Z,1004.03
2023-02-19T04:07:16.574Z,1004.03
2023-02-19T04:08:16.679Z,1004.01
2023-02-19T04:09:16.738Z,1004.07
2023-02-19T04:10:16.817Z,1004.10
2023-02-19T04:11:16.884Z,1004.12
2023-02-19T04:12:16.992Z,1004.10
2023-02-19T04:13:17.078Z,1004.07
2023-02-19T04:14:17.161Z,1004.17
2023-02-19T04:15:17.232Z,1004.17
2023-02-19T04:16:17.365Z,1004.15
2023-02-19T04:17:17.391Z,1004.15
2023-02-19T04:18:17.479Z,1004.17
2023-02-19T04:19:17.558Z,1004.13
2023-02-19T04:20:17.697Z,1004.11
2023-02-19T04:21:17.732Z,1004.12
2023-02-19T04:22:17.820Z,1004.15
2023-02-19T04:23:17.880Z,1004.15
2023-02-19T04:24:17.981Z,1004.16
2023-02-19T04:25:18.055Z,1004.20
2023-02-19T04:26:18.121Z,1004.17
2023-02-19T04:27:18.189Z,1004.21
2023-02-19T04:28:18.276Z,1004.16
2023-02-19T04:29:18.333Z,1004.24
2023-02-19T04:30:18.481Z,1004.25
2023-02-19T04:31:18.642Z,1004.24
2023-02-19T04:32:18.621Z,1004.29
2023-02-19T04:33:18.669Z,1004.23
2023-02-19T04:34:18.754Z,1004.25
2023-02-19T04:35:18.852Z,1004.26
2023-02-19T04:36:18.925Z,1004.24
2023-02-19T04:37:18.974Z,1004.16
2023-02-19T04:38:19.074Z,1004.15
2023-02-19T04:39:19.125Z,1004.22
2023-02-19T04:40:19.218Z,1004.23
2023-02-19T04:41:19.267Z,1004.25
2023-02-19T04:42:19.353Z,1004.30
2023-02-19T04:43:19.413Z,1004.29
2023-02-19T04:44:19.489Z,1004.39
2023-02-19T04:45:19.560Z,1004.38
2023-02-19T04:46:19.700Z,1004.41
2023-02-19T04:47:19.840Z,1004.45
2023-02-19T04:48:19.823Z,1004.44
2023-02-19T04:49:19.879Z,1004.45
2023-02-19T04:50:19.976Z,1004.47
2023-02-19T04:51:20.037Z,1004.45
2023-02-19T04:52:20.139Z,1004.46
2023-02-19T04:53:20.193Z,1004.40
2023-02-19T04:54:20.280Z,1004.51
2023-02-19T04:55:20.359Z,1004.50
2023-02-19T04:56:20.452Z,1004.55
2023-02-19T04:57:20.519Z,1004.50
2023-02-19T04:58:20.648Z,1004.53
2023-02-19T04:59:20.673Z,1004.52
2023-02-19T05:00:20.808Z,1004.48
2023-02-19T05:01:20.934Z,1004.52
2023-02-19T05:02:20.956Z,1004.49
2023-02-19T05:03:21.043Z,1004.51
2023-02-19T05:04:21.231Z,1004.54
2023-02-19T05:05:21.229Z,1004.59
2023-02-19T05:06:21.291Z,1004.56
2023-02-19T05:07:21.356Z,1004.59
2023-02-19T05:08:21.467Z,1004.62
2023-02-19T05:09:21.539Z,1004.65
2023-02-19T05:10:21.669Z,1004.69
2023-02-19T05:11:21.755Z,1004.64
2023-02-19T05:12:21.837Z,1004.60
2023-02-19T05:13:21.939Z,1004.67
2023-02-19T05:14:22.013Z,1004.64
2023-02-19T05:15:22.122Z,1004.69
2023-02-19T05:16:22.216Z,1004.66
2023-02-19T05:17:22.293Z,1004.72
2023-02-19T05:18:22.385Z,1004.65
2023-02-19T05:19:22.471Z,1004.68
2023-02-19T05:20:22.567Z,1004.68
2023-02-19T05:21:22.613Z,1004.67
2023-02-19T05:22:22.738Z,1004.69
2023-02-19T05:23:22.804Z,1004.70
2023-02-19T05:24:22.893Z,1004.69
2023-02-19T05:25:22.981Z,1004.70
2023-02-19T05:26:23.050Z,1004.75
2023-02-19T05:27:23.132Z,1004.75
2023-02-19T05:28:23.227Z,1004.73
2023-02-19T05:29:23.279Z,1004.72
2023-02-19T05:30:23.461Z,1004.71
2023-02-19T05:31:23.538Z,1004.71
2023-02-19T05:32:23.548Z,1004.73
2023-02-19T05:33:23.636Z,1004.77
2023-02-19T05:34:23.732Z,1004.72
2023-02-19T05:35:23.793Z,1004.70
2023-02-19T05:36:23.903Z,1004.72
2023-02-19T05:37:23.946Z,1004.74
2023-02-19T05:38:24.042Z,1004.81
2023-02-19T05:39:24.123Z,1004.81
2023-02-19T05:40:24.262Z,1004.81
2023-02-19T05:41:24.288Z,1004.85
2023-02-19T05:42:24.368Z,1004.86
2023-02-19T05:43:24.448Z,1004.80
2023-02-19T05:44:24.520Z,1004.88
2023-02-19T05:45:24.636Z,1004.90
2023-02-19T05:46:24.741Z,1004.91
2023-02-19T05:47:24.781Z,1004.91
2023-02-19T05:48:24.860Z,1004.92
2023-02-19T05:49:24.936Z,1004.97
2023-02-19T05:50:25.043Z,1005.00
2023-02-19T05:51:25.116Z,1004.97
2023-02-19T05:52:25.184Z,1004.97
2023-02-19T05:53:25.263Z,1004.99
2023-02-19T05:54:25.351Z,1005.06
2023-02-19T05:55:25.438Z,1005.05
2023-02-19T05:56:25.489Z,1005.09
2023-02-19T05:57:25.588Z,1005.09
2023-02-19T05:58:25.666Z,1005.06
2023-02-19T05:59:25.740Z,1005.20
2023-02-19T06:00:25.846Z,1005.18
2023-02-19T06:01:25.913Z,1005.16
2023-02-19T06:02:25.990Z,1005.23
2023-02-19T06:03:26.120Z,1005.21
2023-02-19T06:04:26.158Z,1005.21
2023-02-19T06:05:26.293Z,1005.25
2023-02-19T06:06:26.364Z,1005.31
2023-02-19T06:07:26.440Z,1005.31
2023-02-19T06:08:26.523Z,1005.29
2023-02-19T06:09:26.602Z,1005.37
2023-02-19T06:10:26.695Z,1005.38
2023-02-19T06:11:26.763Z,1005.33
2023-02-19T06:12:26.823Z,1005.37
2023-02-19T06:13:26.915Z,1005.33
2023-02-19T06:14:26.996Z,1005.34
2023-02-19T06:15:27.119Z,1005.41
2023-02-19T06:16:27.281Z,1005.36
2023-02-19T06:17:27.245Z,1005.41
2023-02-19T06:18:27.336Z,1005.41
2023-02-19T06:19:27.410Z,1005.37
2023-02-19T06:20:27.490Z,1005.30
2023-02-19T06:21:27.626Z,1005.37
2023-02-19T06:22:27.647Z,1005.38
2023-02-19T06:23:27.738Z,1005.40
2023-02-19T06:24:27.813Z,1005.44
2023-02-19T06:25:27.906Z,1005.44
2023-02-19T06:26:27.959Z,1005.40
2023-02-19T06:27:28.061Z,1005.45
2023-02-19T06:28:28.172Z,1005.46
2023-02-19T06:29:28.254Z,1005.51
2023-02-19T06:30:28.411Z,1005.51
2023-02-19T06:31:28.530Z,1005.52
2023-02-19T06:32:28.542Z,1005.46
2023-02-19T06:33:28.581Z,1005.53
2023-02-19T06:34:28.638Z,1005.53
2023-02-19T06:35:28.744Z,1005.52
2023-02-19T06:36:28.787Z,1005.51
2023-02-19T06:37:28.883Z,1005.59
2023-02-19T06:38:28.947Z,1005.58
2023-02-19T06:39:29.056Z,1005.56
2023-02-19T06:40:29.148Z,1005.60
2023-02-19T06:41:29.200Z,1005.59
2023-02-19T06:42:29.290Z,1005.62
2023-02-19T06:43:29.338Z,1005.64
2023-02-19T06:44:29.399Z,1005.58
2023-02-19T06:45:29.536Z,1005.59
2023-02-19T06:46:29.624Z,1005.61
2023-02-19T06:47:29.652Z,1005.56
2023-02-19T06:48:29.715Z,1005.64
2023-02-19T06:49:29.784Z,1005.66
2023-02-19T06:50:29.864Z,1005.66
2023-02-19T06:51:29.977Z,1005.59
2023-02-19T06:52:30.011Z,1005.63
2023-02-19T06:53:30.136Z,1005.63
2023-02-19T06:54:30.185Z,1005.68
2023-02-19T06:55:30.300Z,1005.69
2023-02-19T06:56:30.378Z,1005.70
2023-02-19T06:57:30.450Z,1005.71
2023-02-19T06:58:30.510Z,1005.75
2023-02-19T06:59:30.602Z,1005.72
2023-02-19T07:00:30.717Z,1005.76
2023-02-19T07:01:30.784Z,1005.77
2023-02-19T07:02:30.846Z,1005.81
2023-02-19T07:03:30.950Z,1005.82
2023-02-19T07:04:31.015Z,1005.88
2023-02-19T07:05:31.137Z,1005.90
2023-02-19T07:06:31.160Z,1005.90
2023-02-19T07:07:31.254Z,1005.93
2023-02-19T07:08:31.311Z,1005.95
2023-02-19T07:09:31.425Z,1005.95
2023-02-19T07:10:31.510Z,1006.00
2023-02-19T07:11:31.588Z,1005.94
2023-02-19T07:12:31.676Z,1005.89
2023-02-19T07:13:31.761Z,1005.87
2023-02-19T07:14:31.817Z,1005.96
2023-02-19T07:15:31.937Z,1005.97
2023-02-19T07:16:32.049Z,1005.98
2023-02-19T07:17:32.101Z,1006.08
2023-02-19T07:18:32.198Z,1006.09
2023-02-19T07:19:32.287Z,1006.11
2023-02-19T07:20:32.396Z,1006.09
2023-02-19T07:21:32.481Z,1006.15
2023-02-19T07:22:32.543Z,1006.15
2023-02-19T07:23:32.653Z,1006.15
2023-02-19T07:24:32.722Z,1006.09
2023-02-19T07:25:32.839Z,1006.12
2023-02-19T07:26:32.900Z,1006.16
2023-02-19T07:27:32.999Z,1006.15
2023-02-19T07:28:33.068Z,1006.21
2023-02-19T07:29:33.166Z,1006.18
2023-02-19T07:30:33.315Z,1006.22
2023-02-19T07:31:33.427Z,1006.21
2023-02-19T07:32:33.433Z,1006.27
2023-02-19T07:33:33.522Z,1006.29
2023-02-19T07:34:33.572Z,1006.29
2023-02-19T07:35:33.690Z,1006.30
2023-02-19T07:36:33.770Z,1006.29
2023-02-19T07:37:33.856Z,1006.32
2023-02-19T07:38:33.927Z,1006.38
2023-02-19T07:39:33.998Z,1006.33
2023-02-19T07:40:34.103Z,1006.36
2023-02-19T07:41:34.170Z,1006.38
2023-02-19T07:42:34.227Z,1006.41
2023-02-19T07:43:34.329Z,1006.41
2023-02-19T07:44:34.408Z,1006.46
2023-02-19T07:45:34.521Z,1006.44
2023-02-19T07:46:34.562Z,1006.53
2023-02-19T07:47:34.634Z,1006.60
2023-02-19T07:48:34.726Z,1006.59
2023-02-19T07:49:34.797Z,1006.58
2023-02-19T07:50:34.897Z,1006.56
2023-02-19T07:51:34.937Z,1006.59
2023-02-19T07:52:35.037Z,1006.61
2023-02-19T07:53:35.134Z,1006.64
2023-02-19T07:54:35.195Z,1006.62
2023-02-19T07:55:35.268Z,1006.67
2023-02-19T07:56:35.311Z,1006.70
2023-02-19T07:57:35.382Z,1006.72
2023-02-19T07:58:35.462Z,1006.76
2023-02-19T07:59:35.564Z,1006.74
2023-02-19T08:00:35.658Z,1006.75
2023-02-19T08:01:35.766Z,1006.78
2023-02-19T08:02:35.814Z,1006.83
2023-02-19T08:03:35.907Z,1006.86
2023-02-19T08:04:35.969Z,1006.85
2023-02-19T08:05:36.058Z,1006.85
2023-02-19T08:06:36.106Z,1006.93
2023-02-19T08:07:36.203Z,1006.96
2023-02-19T08:08:36.292Z,1006.94
2023-02-19T08:09:36.388Z,1006.89
2023-02-19T08:10:36.474Z,1006.92
2023-02-19T08:11:36.540Z,1006.90
2023-02-19T08:12:36.644Z,1006.88
2023-02-19T08:13:36.744Z,1006.92
2023-02-19T08:14:36.835Z,1006.87
2023-02-19T08:15:36.913Z,1006.92
2023-02-19T08:16:43.251Z,1006.88
2023-02-19T08:17:37.070Z,1006.98
2023-02-19T08:18:37.142Z,1006.96
2023-02-19T08:19:37.247Z,1007.00
2023-02-19T08:20:37.340Z,1006.98
2023-02-19T08:21:37.397Z,1007.01
2023-02-19T08:22:37.497Z,1007.08
2023-02-19T08:23:37.554Z,1007.05
2023-02-19T08:24:37.639Z,1007.03
2023-02-19T08:25:37.771Z,1007.10
2023-02-19T08:26:37.806Z,1007.11
2023-02-19T08:27:37.873Z,1007.15
2023-02-19T08:28:37.921Z,1007.13
2023-02-19T08:29:38.014Z,1007.17
2023-02-19T08:30:38.260Z,1007.10
2023-02-19T08:31:38.334Z,1007.12
2023-02-19T08:32:38.230Z,1007.14
2023-02-19T08:33:38.306Z,1007.15
2023-02-19T08:34:38.375Z,1007.13
2023-02-19T08:35:38.484Z,1007.13
2023-02-19T08:36:38.542Z,1007.16
2023-02-19T08:37:38.644Z,1007.18
2023-02-19T08:38:38.709Z,1007.21
2023-02-19T08:39:38.802Z,1007.23
2023-02-19T08:40:38.909Z,1007.22
2023-02-19T08:41:38.977Z,1007.31
2023-02-19T08:42:39.036Z,1007.32
2023-02-19T08:43:39.141Z,1007.37
2023-02-19T08:44:39.213Z,1007.35
2023-02-19T08:45:39.347Z,1007.43
2023-02-19T08:46:39.375Z,1007.42
2023-02-19T08:47:39.458Z,1007.44
2023-02-19T08:48:39.526Z,1007.39
2023-02-19T08:49:39.620Z,1007.41
2023-02-19T08:50:39.733Z,1007.47
2023-02-19T08:51:39.799Z,1007.47
2023-02-19T08:52:39.890Z,1007.49
2023-02-19T08:53:39.972Z,1007.49
2023-02-19T08:54:40.038Z,1007.49
2023-02-19T08:55:40.132Z,1007.43
2023-02-19T08:56:40.179Z,1007.47
2023-02-19T08:57:40.280Z,1007.42
2023-02-19T08:58:40.359Z,1007.44
2023-02-19T08:59:40.424Z,1007.47
2023-02-19T09:00:40.532Z,1007.45
2023-02-19T09:01:40.664Z,1007.49
2023-02-19T09:02:40.648Z,1007.50
2023-02-19T09:03:40.720Z,1007.52
2023-02-19T09:04:40.802Z,1007.57
2023-02-19T09:05:40.965Z,1007.61
2023-02-19T09:06:40.961Z,1007.53
2023-02-19T09:07:41.051Z,1007.57
2023-02-19T09:08:41.107Z,1007.60
2023-02-19T09:09:41.203Z,1007.53
2023-02-19T09:10:41.299Z,1007.55
2023-02-19T09:11:41.349Z,1007.56
2023-02-19T09:12:41.428Z,1007.56
2023-02-19T09:13:41.538Z,1007.55
2023-02-19T09:14:41.603Z,1007.57
2023-02-19T09:15:41.739Z,1007.55
2023-02-19T09:16:41.741Z,1007.54
2023-02-19T09:17:41.810Z,1007.57
2023-02-19T09:18:41.885Z,1007.55
2023-02-19T09:19:41.954Z,1007.57
2023-02-19T09:20:42.046Z,1007.57
2023-02-19T09:21:42.093Z,1007.55
2023-02-19T09:22:42.160Z,1007.56
2023-02-19T09:23:42.257Z,1007.56
2023-02-19T09:24:42.321Z,1007.62
2023-02-19T09:25:42.423Z,1007.63
2023-02-19T09:26:42.488Z,1007.67
2023-02-19T09:27:42.578Z,1007.70
2023-02-19T09:28:42.628Z,1007.69
2023-02-19T09:29:42.709Z,1007.69
2023-02-19T09:30:42.840Z,1007.69
2023-02-19T09:31:43.009Z,1007.63
2023-02-19T09:32:42.938Z,1007.63
2023-02-19T09:33:43.023Z,1007.64
2023-02-19T09:34:43.102Z,1007.62
2023-02-19T09:35:43.204Z,1007.61
2023-02-19T09:36:43.253Z,1007.67
2023-02-19T09:37:43.341Z,1007.71
2023-02-19T09:38:43.429Z,1007.71
2023-02-19T09:39:43.528Z,1007.65
2023-02-19T09:40:43.608Z,1007.66
2023-02-19T09:41:43.696Z,1007.72
2023-02-19T09:42:43.777Z,1007.75
2023-02-19T09:43:43.873Z,1007.76
2023-02-19T09:44:43.959Z,1007.78
2023-02-19T09:45:44.063Z,1007.76
2023-02-19T09:46:44.098Z,1007.76
2023-02-19T09:47:44.167Z,1007.84
2023-02-19T09:48:44.249Z,1007.74
2023-02-19T09:49:44.349Z,1007.83
2023-02-19T09:50:44.447Z,1007.75
2023-02-19T09:51:44.474Z,1007.78
2023-02-19T09:52:44.553Z,1007.81
2023-02-19T09:53:44.634Z,1007.79
2023-02-19T09:54:44.708Z,1007.81
2023-02-19T09:55:44.792Z,1007.78
2023-02-19T09:56:44.857Z,1007.80
2023-02-19T09:57:44.948Z,1007.83
2023-02-19T09:58:45.002Z,1007.86
2023-02-19T09:59:45.138Z,1007.94
2023-02-19T10:00:45.352Z,1007.95
2023-02-19T10:01:45.285Z,1007.98
2023-02-19T10:02:45.330Z,1007.97
2023-02-19T10:03:45.383Z,1007.89
2023-02-19T10:04:45.486Z,1007.94
2023-02-19T10:05:45.828Z,1008.00
2023-02-19T10:06:45.650Z,1008.01
2023-02-19T10:07:45.719Z,1008.04
2023-02-19T10:08:45.801Z,1008.04
2023-02-19T10:09:45.893Z,1008.07
2023-02-19T10:10:46.004Z,1008.05
2023-02-19T10:11:46.020Z,1008.11
2023-02-19T10:12:46.118Z,1008.13
2023-02-19T10:13:46.187Z,1008.17
2023-02-19T10:14:46.246Z,1008.08
2023-02-19T10:15:46.345Z,1008.09
2023-02-19T10:16:46.405Z,1008.07
2023-02-19T10:17:46.465Z,1008.10
2023-02-19T10:18:46.533Z,1008.04
2023-02-19T10:19:46.599Z,1008.03
2023-02-19T10:20:46.700Z,1008.05
2023-02-19T10:21:46.736Z,1008.04
2023-02-19T10:22:46.841Z,1008.07
2023-02-19T10:23:46.922Z,1008.05
2023-02-19T10:24:46.991Z,1007.99
2023-02-19T10:25:47.087Z,1008.05
2023-02-19T10:26:47.159Z,1008.16
2023-02-19T10:27:47.236Z,1008.14
2023-02-19T10:28:47.318Z,1008.24
2023-02-19T10:29:47.399Z,1008.27
2023-02-19T10:30:47.520Z,1008.22
2023-02-19T10:31:47.624Z,1008.21
2023-02-19T10:32:47.635Z,1008.21
2023-02-19T10:33:47.728Z,1008.24
2023-02-19T10:34:47.828Z,1008.30
2023-02-19T10:35:47.924Z,1008.38
2023-02-19T10:36:47.989Z,1008.43
2023-02-19T10:37:48.057Z,1008.39
2023-02-19T10:38:48.146Z,1008.41
2023-02-19T10:39:48.208Z,1008.50
2023-02-19T10:40:48.301Z,1008.50
2023-02-19T10:41:48.347Z,1008.47
2023-02-19T10:42:48.460Z,1008.53
2023-02-19T10:43:48.506Z,1008.53
2023-02-19T10:44:48.654Z,1008.48
2023-02-19T10:45:48.701Z,1008.49
2023-02-19T10:46:48.836Z,1008.48
2023-02-19T10:47:48.851Z,1008.51
2023-02-19T10:48:48.927Z,1008.49
2023-02-19T10:49:48.992Z,1008.56
2023-02-19T10:50:49.099Z,1008.57
2023-02-19T10:51:49.132Z,1008.58
2023-02-19T10:52:49.224Z,1008.56
2023-02-19T10:53:49.288Z,1008.62
2023-02-19T10:54:49.382Z,1008.68
2023-02-19T10:55:49.470Z,1008.66
2023-02-19T10:56:49.528Z,1008.66
2023-02-19T10:57:49.599Z,1008.68
2023-02-19T10:58:49.694Z,1008.65
2023-02-19T10:59:49.758Z,1008.78
2023-02-19T11:00:49.861Z,1008.80
2023-02-19T11:01:49.920Z,1008.85
2023-02-19T11:02:49.986Z,1008.90
2023-02-19T11:03:50.036Z,1008.97
2023-02-19T11:04:50.127Z,1008.90
2023-02-19T11:05:50.206Z,1008.98
2023-02-19T11:06:50.273Z,1008.98
2023-02-19T11:07:50.339Z,1009.08
2023-02-19T11:08:50.432Z,1009.03
2023-02-19T11:09:50.485Z,1008.98
2023-02-19T11:10:50.597Z,1009.01
2023-02-19T11:11:50.659Z,1009.01
2023-02-19T11:12:50.756Z,1009.03
2023-02-19T11:13:50.824Z,1009.04
2023-02-19T11:14:50.926Z,1009.08
2023-02-19T11:15:51.060Z,1009.11
2023-02-19T11:16:51.107Z,1009.10
2023-02-19T11:17:51.165Z,1009.08
2023-02-19T11:18:51.249Z,1009.09
2023-02-19T11:19:51.326Z,1009.04
2023-02-19T11:20:51.442Z,1009.08
2023-02-19T11:21:51.509Z,1009.04
2023-02-19T11:22:51.602Z,1009.08
2023-02-19T11:23:51.663Z,1009.08
2023-02-19T11:24:54.571Z,1009.15
2023-02-19T11:25:51.830Z,1009.14
2023-02-19T11:26:51.893Z,1009.13
2023-02-19T11:27:51.951Z,1009.12
2023-02-19T11:28:52.066Z,1009.10
2023-02-19T11:29:52.149Z,1009.07
2023-02-19T11:30:52.241Z,1009.14
2023-02-19T11:31:52.420Z,1009.13
2023-02-19T11:32:52.363Z,1009.17
2023-02-19T11:33:52.432Z,1009.20
2023-02-19T11:34:52.517Z,1009.19
2023-02-19T11:35:52.621Z,1009.11
2023-02-19T11:36:52.678Z,1009.17
2023-02-19T11:37:52.735Z,1009.14
2023-02-19T11:38:52.842Z,1009.13
2023-02-19T11:39:52.937Z,1009.17
2023-02-19T11:40:53.031Z,1009.17
2023-02-19T11:41:53.072Z,1009.19
2023-02-19T11:42:53.144Z,1009.21
2023-02-19T11:43:53.208Z,1009.27
2023-02-19T11:44:53.277Z,1009.28
2023-02-19T11:45:53.416Z,1009.27
2023-02-19T11:46:53.467Z,1009.25
2023-02-19T11:47:53.532Z,1009.20
2023-02-19T11:48:53.632Z,1009.18
2023-02-19T11:49:53.710Z,1009.11
2023-02-19T11:50:53.802Z,1009.10
2023-02-19T11:51:53.864Z,1009.13
2023-02-19T11:52:53.963Z,1009.07
2023-02-19T11:53:54.055Z,1009.07
2023-02-19T11:54:54.137Z,1009.12
2023-02-19T11:55:54.192Z,1009.12
2023-02-19T11:56:54.275Z,1009.07
2023-02-19T11:57:54.360Z,1009.07
2023-02-19T11:58:54.436Z,1009.02
2023-02-19T11:59:54.491Z,1009.03
2023-02-19T12:00:54.623Z,1008.99
2023-02-19T12:01:54.681Z,1009.02
2023-02-19T12:02:54.737Z,1008.97
2023-02-19T12:03:54.805Z,1009.00
2023-02-19T12:04:54.923Z,1009.03
2023-02-19T12:05:55.003Z,1009.04
2023-02-19T12:06:55.052Z,1009.03